Time;durP1;ratioP1;P1;durP2;ratioP2;P2;SDS_P1;SDS_P2;PMS_P1;PMS_P2;Temp;Humidity;BMP_temperature;BMP_pressure;BME280_temperature;BME280_humidity;BME280_pressure;Samples;Min_cycle;Max_cycle;Signal;HPM_P1;HPM_P2
2023/11/21 00:01:28;;;;;;;8.27;7.50;;;9.50;1.00;;;;;;5067370;28;20496;-75
2023/11/21 00:03:55;;;;;;;8.50;7.70;;;9.40;1.00;;;;;;5068271;28;20460;-73
2023/11/21 00:06:22;;;;;;;9.63;8.73;;;9.40;1.00;;;;;;5067806;28;20459;-76
2023/11/21 00:08:49;;;;;;;10.33;8.20;;;9.30;1.00;;;;;;5060979;28;20571;-76
2023/11/21 00:11:16;;;;;;;10.23;9.23;;;9.20;1.00;;;;;;5066805;28;20534;-76
2023/11/21 00:13:43;;;;;;;11.10;8.83;;;9.20;1.00;;;;;;5051869;28;20499;-74
2023/11/21 00:16:11;;;;;;;10.93;9.27;;;9.10;1.00;;;;;;5058333;28;21118;-74
2023/11/21 00:18:39;;;;;;;11.67;10.47;;;9.10;1.00;;;;;;5068009;28;20920;-76
2023/11/21 00:21:07;;;;;;;11.40;10.20;;;8.90;1.00;;;;;;5056611;28;20468;-74
2023/11/21 00:23:34;;;;;;;11.10;9.93;;;8.90;1.00;;;;;;5047786;28;20538;-75
2023/11/21 00:26:01;;;;;;;14.00;11.60;;;8.90;1.00;;;;;;5050259;28;20547;-75
2023/11/21 00:28:27;;;;;;;14.53;11.30;;;8.90;1.00;;;;;;5048348;28;20607;-79
2023/11/21 00:30:54;;;;;;;15.03;13.30;;;8.90;1.00;;;;;;5046550;28;20555;-79
2023/11/21 00:33:21;;;;;;;16.80;14.30;;;8.70;1.00;;;;;;5050502;28;20468;-75
2023/11/21 00:35:50;;;;;;;18.77;14.40;;;8.60;1.00;;;;;;5045545;28;20551;-77
2023/11/21 00:38:20;;;;;;;18.30;15.23;;;8.60;1.00;;;;;;5069787;28;21008;-74
2023/11/21 00:40:47;;;;;;;17.63;14.30;;;8.60;1.00;;;;;;5060601;28;22766;-79
2023/11/21 00:43:15;;;;;;;18.90;15.80;;;8.60;1.00;;;;;;5058356;28;20493;-76
2023/11/21 00:45:42;;;;;;;20.90;16.20;;;8.60;1.00;;;;;;5058368;28;21090;-79
2023/11/21 00:48:09;;;;;;;20.70;16.33;;;8.50;1.00;;;;;;5054344;28;20468;-80
2023/11/21 00:50:36;;;;;;;20.77;16.50;;;8.50;1.00;;;;;;5058747;28;20562;-80
2023/11/21 00:53:04;;;;;;;25.17;17.37;;;8.40;1.00;;;;;;5058176;28;20511;-79
2023/11/21 00:55:31;;;;;;;27.57;17.93;;;8.30;1.00;;;;;;5067149;28;20543;-80
2023/11/21 00:57:58;;;;;;;26.03;19.60;;;8.30;1.00;;;;;;5065993;28;20473;-80
2023/11/21 01:00:25;;;;;;;28.07;20.37;;;8.30;1.00;;;;;;5072840;28;20465;-80
2023/11/21 01:02:52;;;;;;;23.43;17.73;;;8.30;1.00;;;;;;5058135;28;20456;-80
2023/11/21 01:05:21;;;;;;;29.87;20.67;;;8.20;1.00;;;;;;5049559;28;20544;-78
2023/11/21 01:07:47;;;;;;;28.80;19.20;;;8.20;1.00;;;;;;5062543;28;20512;-78
2023/11/21 01:10:17;;;;;;;27.10;19.60;;;8.10;1.00;;;;;;5068546;28;20543;-77
2023/11/21 01:12:44;;;;;;;32.33;21.02;;;8.10;1.00;;;;;;5057703;28;20605;-79
2023/11/21 01:15:12;;;;;;;28.40;18.27;;;8.00;1.00;;;;;;5058815;28;20264;-79
2023/11/21 01:17:40;;;;;;;31.57;19.77;;;7.90;1.00;;;;;;5065802;28;20556;-80
2023/11/21 01:20:11;;;;;;;27.63;18.93;;;7.90;1.00;;;;;;5055687;28;22032;-76
2023/11/21 01:22:38;;;;;;;31.00;21.33;;;7.90;1.00;;;;;;5063165;28;20471;-78
2023/11/21 01:25:07;;;;;;;35.90;22.07;;;7.80;1.00;;;;;;5066733;28;20565;-80
2023/11/21 01:27:35;;;;;;;33.10;20.97;;;7.70;1.00;;;;;;5068008;28;20490;-80
2023/11/21 01:30:03;;;;;;;37.73;22.37;;;7.60;1.00;;;;;;5069279;28;20562;-79
2023/11/21 01:32:30;;;;;;;33.13;21.08;;;7.60;1.00;;;;;;5067005;28;20464;-80
2023/11/21 01:34:57;;;;;;;36.50;23.05;;;7.50;1.00;;;;;;5066676;28;20280;-79
2023/11/21 01:37:24;;;;;;;38.17;23.40;;;7.50;1.00;;;;;;5057558;28;20325;-80
2023/11/21 01:39:51;;;;;;;41.25;25.17;;;7.50;1.00;;;;;;5064505;28;20235;-74
2023/11/21 01:42:18;;;;;;;42.17;25.70;;;7.50;1.00;;;;;;5057434;28;20344;-80
2023/11/21 01:44:46;;;;;;;50.87;27.10;;;7.50;1.00;;;;;;5054241;28;20250;-78
2023/11/21 01:47:15;;;;;;;41.38;25.55;;;7.50;1.00;;;;;;5060831;28;20968;-78
2023/11/21 01:49:44;;;;;;;42.05;25.38;;;7.60;1.00;;;;;;5063011;28;20667;-78
2023/11/21 01:52:12;;;;;;;36.50;25.87;;;7.60;1.00;;;;;;5067035;28;20234;-78
2023/11/21 01:54:39;;;;;;;43.03;25.83;;;7.60;1.00;;;;;;5065977;28;20546;-79
2023/11/21 01:57:07;;;;;;;42.93;26.20;;;7.60;1.00;;;;;;5057602;28;20584;-79
2023/11/21 01:59:36;;;;;;;49.78;28.17;;;7.60;1.00;;;;;;5063000;28;20565;-80
2023/11/21 02:02:06;;;;;;;47.17;28.40;;;7.60;1.00;;;;;;5058618;28;20402;-81
2023/11/21 02:04:33;;;;;;;54.22;28.42;;;7.50;1.00;;;;;;5068146;28;20455;-80
2023/11/21 02:07:00;;;;;;;49.30;27.10;;;7.50;1.00;;;;;;5066748;28;20750;-80
2023/11/21 02:09:29;;;;;;;47.57;26.87;;;7.50;1.00;;;;;;5064109;28;20432;-77
2023/11/21 02:11:56;;;;;;;50.13;27.70;;;7.50;1.00;;;;;;5059834;28;20464;-78
2023/11/21 02:14:24;;;;;;;46.17;27.40;;;7.50;1.00;;;;;;5063683;28;20552;-77
2023/11/21 02:16:52;;;;;;;45.90;24.80;;;7.50;1.00;;;;;;5054642;28;20549;-74
2023/11/21 02:19:22;;;;;;;44.00;25.05;;;7.40;1.00;;;;;;5055874;28;20332;-80
2023/11/21 02:21:51;;;;;;;43.22;21.92;;;7.40;1.00;;;;;;5067170;28;20310;-77
2023/11/21 02:24:21;;;;;;;41.97;23.20;;;7.40;1.00;;;;;;5065805;28;20245;-81
2023/11/21 02:26:48;;;;;;;38.43;22.00;;;7.40;1.00;;;;;;5048781;28;20554;-79
2023/11/21 02:29:17;;;;;;;35.83;20.43;;;7.40;1.00;;;;;;5053641;28;20455;-79
2023/11/21 02:31:48;;;;;;;34.50;22.40;;;7.50;1.00;;;;;;5057689;28;20465;-74
2023/11/21 02:34:15;;;;;;;29.02;17.65;;;7.40;1.00;;;;;;5044347;28;20493;-76
2023/11/21 02:36:45;;;;;;;28.83;18.70;;;7.30;1.00;;;;;;5045790;28;20369;-78
2023/11/21 02:39:13;;;;;;;28.13;16.77;;;7.30;1.00;;;;;;5047700;28;20568;-78
2023/11/21 02:41:41;;;;;;;27.20;17.60;;;7.30;1.00;;;;;;5047611;28;20572;-77
2023/11/21 02:44:08;;;;;;;27.90;17.33;;;7.30;1.00;;;;;;5050643;28;20422;-79
2023/11/21 02:46:36;;;;;;;28.15;14.48;;;7.30;1.00;;;;;;5062766;28;21526;-78
2023/11/21 02:49:03;;;;;;;23.88;15.35;;;7.20;1.00;;;;;;5056254;28;20269;-76
2023/11/21 02:51:30;;;;;;;20.25;13.95;;;7.20;1.00;;;;;;5061688;28;20241;-75
2023/11/21 02:53:58;;;;;;;19.20;12.40;;;7.20;1.00;;;;;;5056336;28;20302;-76
2023/11/21 02:56:26;;;;;;;21.57;13.80;;;7.10;1.00;;;;;;5062522;28;20230;-75
2023/11/21 02:58:57;;;;;;;20.05;12.20;;;7.00;1.00;;;;;;5050063;28;20464;-75
2023/11/21 03:01:25;;;;;;;18.52;12.43;;;7.00;1.00;;;;;;5050998;28;20318;-75
2023/11/21 03:03:52;;;;;;;13.95;11.48;;;7.00;1.00;;;;;;5045659;28;20254;-75
2023/11/21 03:06:19;;;;;;;17.30;12.57;;;7.00;1.00;;;;;;5062605;28;21027;-75
2023/11/21 03:08:46;;;;;;;17.58;11.75;;;6.90;1.00;;;;;;5063278;28;20886;-75
2023/11/21 03:11:13;;;;;;;13.73;11.85;;;6.80;1.00;;;;;;5052833;28;20235;-75
2023/11/21 03:13:41;;;;;;;14.38;12.00;;;6.80;1.00;;;;;;5054104;28;20310;-75
2023/11/21 03:16:10;;;;;;;14.82;12.50;;;6.80;1.00;;;;;;5064140;28;20242;-75
2023/11/21 03:18:37;;;;;;;14.40;12.52;;;6.80;1.00;;;;;;5041455;28;20253;-74
2023/11/21 03:21:04;;;;;;;15.68;11.45;;;6.80;1.00;;;;;;5063816;28;20235;-75
2023/11/21 03:23:31;;;;;;;16.08;12.68;;;6.80;1.00;;;;;;5052539;28;20247;-75
2023/11/21 03:25:59;;;;;;;14.38;11.82;;;6.70;1.00;;;;;;5063604;28;20241;-74
2023/11/21 03:28:26;;;;;;;13.45;11.25;;;6.70;1.00;;;;;;5054358;27;20232;-76
2023/11/21 03:30:53;;;;;;;13.93;11.77;;;6.70;1.00;;;;;;5062796;28;20660;-75
2023/11/21 03:33:22;;;;;;;14.27;12.00;;;6.80;1.00;;;;;;5061813;28;20538;-77
2023/11/21 03:35:49;;;;;;;13.05;11.18;;;6.80;1.00;;;;;;5070200;28;20241;-75
2023/11/21 03:38:16;;;;;;;13.02;11.57;;;6.80;1.00;;;;;;5046929;28;20241;-74
2023/11/21 03:40:43;;;;;;;13.43;11.93;;;6.80;1.00;;;;;;5052160;28;20361;-75
2023/11/21 03:43:10;;;;;;;12.63;11.35;;;6.80;1.00;;;;;;5066629;28;20847;-75
2023/11/21 03:45:37;;;;;;;13.70;11.68;;;6.80;1.00;;;;;;5062504;28;20240;-76
2023/11/21 03:48:04;;;;;;;14.60;11.60;;;6.80;1.00;;;;;;5065908;28;20944;-76
2023/11/21 03:50:33;;;;;;;11.82;10.52;;;6.80;1.00;;;;;;5063224;28;20342;-74
2023/11/21 03:53:00;;;;;;;13.68;10.82;;;6.80;1.00;;;;;;5062949;28;20256;-74
2023/11/21 03:55:27;;;;;;;13.68;11.18;;;6.80;1.00;;;;;;5065887;28;20270;-75
2023/11/21 03:57:53;;;;;;;13.65;11.85;;;6.70;1.00;;;;;;5065360;28;20241;-74
2023/11/21 04:00:21;;;;;;;13.43;11.77;;;6.70;1.00;;;;;;5064509;28;20288;-76
2023/11/21 04:02:48;;;;;;;11.85;10.57;;;6.70;1.00;;;;;;5064917;28;20269;-74
2023/11/21 04:05:15;;;;;;;13.32;11.93;;;6.60;1.00;;;;;;5063366;28;21201;-75
2023/11/21 04:07:43;;;;;;;11.45;10.25;;;6.60;1.00;;;;;;5066492;28;20257;-74
2023/11/21 04:10:13;;;;;;;13.70;11.20;;;6.60;1.00;;;;;;5067914;28;20234;-75
2023/11/21 04:12:39;;;;;;;13.70;10.85;;;6.50;1.00;;;;;;5071381;28;20266;-74
2023/11/21 04:15:09;;;;;;;12.57;10.80;;;6.60;1.00;;;;;;5068452;28;20258;-75
2023/11/21 04:17:36;;;;;;;11.70;10.07;;;6.60;1.00;;;;;;5067951;28;20313;-75
2023/11/21 04:20:08;;;;;;;10.90;9.80;;;6.50;1.00;;;;;;5066932;28;20238;-79
2023/11/21 04:22:34;;;;;;;12.32;10.23;;;6.50;1.00;;;;;;5071707;28;20226;-82
2023/11/21 04:25:03;;;;;;;13.10;10.90;;;6.50;1.00;;;;;;5067823;28;20332;-80
2023/11/21 04:27:30;;;;;;;11.80;10.35;;;6.50;1.00;;;;;;5068789;28;20253;-75
2023/11/21 04:29:57;;;;;;;12.65;10.38;;;6.50;1.00;;;;;;5062737;28;20242;-71
2023/11/21 04:32:24;;;;;;;11.53;10.20;;;6.50;1.00;;;;;;5061066;28;20436;-72
2023/11/21 04:34:51;;;;;;;12.70;10.70;;;6.60;1.00;;;;;;5070057;28;20464;-71
2023/11/21 04:37:17;;;;;;;12.02;10.60;;;6.50;1.00;;;;;;5066750;28;20240;-73
2023/11/21 04:39:44;;;;;;;12.20;10.18;;;6.50;1.00;;;;;;5065122;28;20239;-75
2023/11/21 04:42:13;;;;;;;11.63;9.52;;;6.40;1.00;;;;;;5072088;28;20237;-80
2023/11/21 04:44:41;;;;;;;10.60;9.57;;;6.40;1.00;;;;;;5071095;28;20234;-78
2023/11/21 04:47:08;;;;;;;10.75;9.65;;;6.50;1.00;;;;;;5065062;28;20247;-80
2023/11/21 04:49:35;;;;;;;10.43;9.35;;;6.50;1.00;;;;;;5070167;28;20347;-81
2023/11/21 04:52:03;;;;;;;12.30;9.32;;;6.50;1.00;;;;;;5071811;28;20239;-82
2023/11/21 04:54:30;;;;;;;10.57;9.48;;;6.40;1.00;;;;;;5067437;28;20245;-79
2023/11/21 04:56:58;;;;;;;11.60;8.75;;;6.30;1.00;;;;;;5069820;28;20242;-80
2023/11/21 04:59:27;;;;;;;9.82;8.65;;;6.30;1.00;;;;;;5069761;28;20246;-80
2023/11/21 05:01:54;;;;;;;8.95;7.97;;;6.30;1.00;;;;;;5072023;28;20301;-78
2023/11/21 05:04:22;;;;;;;11.48;8.88;;;6.20;1.00;;;;;;5060013;28;20237;-79
2023/11/21 05:06:49;;;;;;;10.60;9.10;;;6.20;1.00;;;;;;5068462;28;20257;-78
2023/11/21 05:09:16;;;;;;;9.60;8.27;;;6.20;1.00;;;;;;5065207;28;20268;-73
2023/11/21 05:11:43;;;;;;;9.52;8.63;;;6.20;1.00;;;;;;5064193;28;20245;-73
2023/11/21 05:14:10;;;;;;;11.30;8.27;;;6.20;1.00;;;;;;5064634;28;20699;-73
2023/11/21 05:16:42;;;;;;;11.60;8.93;;;6.20;1.00;;;;;;5065874;28;20336;-74
2023/11/21 05:19:09;;;;;;;8.32;7.43;;;6.20;1.00;;;;;;5046030;28;20244;-72
2023/11/21 05:21:37;;;;;;;8.73;7.15;;;6.20;1.00;;;;;;5047152;28;20249;-73
2023/11/21 05:24:05;;;;;;;15.93;11.35;;;6.30;1.00;;;;;;5064482;28;20253;-73
2023/11/21 05:26:32;;;;;;;8.27;6.60;;;6.30;1.00;;;;;;5057173;28;20252;-73
2023/11/21 05:28:58;;;;;;;9.40;7.28;;;6.30;1.00;;;;;;5063804;28;20816;-73
2023/11/21 05:31:26;;;;;;;9.18;8.27;;;6.30;1.00;;;;;;5063406;28;20965;-72
2023/11/21 05:33:55;;;;;;;8.90;7.68;;;6.30;1.00;;;;;;5065176;28;20238;-74
2023/11/21 05:36:21;;;;;;;10.00;9.05;;;6.30;1.00;;;;;;5065695;28;20268;-74
2023/11/21 05:38:48;;;;;;;10.75;8.63;;;6.40;1.00;;;;;;5062338;28;20405;-74
2023/11/21 05:41:16;;;;;;;7.73;7.00;;;6.40;1.00;;;;;;5064965;28;20242;-73
2023/11/21 05:43:43;;;;;;;10.50;9.02;;;6.50;1.00;;;;;;5066644;28;21009;-74
2023/11/21 05:46:10;;;;;;;9.13;8.05;;;6.50;1.00;;;;;;5063694;28;20328;-74
2023/11/21 05:48:37;;;;;;;8.50;7.00;;;6.50;1.00;;;;;;5061989;28;20296;-74
2023/11/21 05:51:08;;;;;;;8.60;7.73;;;6.50;1.00;;;;;;5065907;28;21085;-74
2023/11/21 05:53:35;;;;;;;10.83;9.73;;;6.60;1.00;;;;;;5050396;28;20505;-75
2023/11/21 05:56:03;;;;;;;7.80;7.00;;;6.60;1.00;;;;;;5054001;28;20455;-74
2023/11/21 05:58:30;;;;;;;13.73;10.80;;;6.70;1.00;;;;;;5051446;28;20259;-73
2023/11/21 06:00:57;;;;;;;10.18;8.98;;;6.60;1.00;;;;;;5064642;28;20484;-74
2023/11/21 06:03:25;;;;;;;7.60;6.53;;;6.70;1.00;;;;;;5065022;28;20268;-74
2023/11/21 06:05:51;;;;;;;8.90;7.45;;;6.60;1.00;;;;;;5052995;28;20240;-74
2023/11/21 06:08:20;;;;;;;7.07;6.18;;;6.60;1.00;;;;;;5058545;28;20233;-74
2023/11/21 06:10:49;;;;;;;8.17;6.50;;;6.60;1.00;;;;;;5067443;28;20235;-76
2023/11/21 06:13:16;;;;;;;7.10;5.77;;;6.60;1.00;;;;;;5066520;28;20843;-74
2023/11/21 06:15:43;;;;;;;8.68;6.72;;;6.70;1.00;;;;;;5065666;28;20962;-75
2023/11/21 06:18:10;;;;;;;8.23;5.93;;;6.70;1.00;;;;;;5064676;28;20238;-76
2023/11/21 06:20:38;;;;;;;11.18;8.43;;;6.70;1.00;;;;;;5068726;28;20240;-72
2023/11/21 06:23:05;;;;;;;7.60;6.28;;;6.60;1.00;;;;;;5066500;28;20243;-73
2023/11/21 06:25:36;;;;;;;7.65;6.32;;;6.60;1.00;;;;;;5064900;28;20334;-72
2023/11/21 06:28:02;;;;;;;7.93;6.68;;;6.70;1.00;;;;;;5066697;28;20242;-74
2023/11/21 06:30:29;;;;;;;6.80;5.77;;;6.60;1.00;;;;;;5066527;28;20298;-72
2023/11/21 06:32:57;;;;;;;9.95;6.25;;;6.70;1.00;;;;;;5062749;28;20561;-75
2023/11/21 06:35:24;;;;;;;9.50;7.05;;;6.70;1.00;;;;;;5061989;28;20239;-73
2023/11/21 06:37:51;;;;;;;9.88;6.75;;;6.80;1.00;;;;;;5067270;28;20826;-72
2023/11/21 06:40:19;;;;;;;7.07;6.33;;;6.80;1.00;;;;;;5056434;28;20233;-74
2023/11/21 06:42:48;;;;;;;8.03;6.63;;;6.80;1.00;;;;;;5065303;28;20475;-72
2023/11/21 06:45:16;;;;;;;8.90;7.38;;;6.90;1.00;;;;;;5063478;28;20455;-73
2023/11/21 06:47:44;;;;;;;8.00;7.20;;;6.90;1.00;;;;;;5055376;28;20241;-72
2023/11/21 06:50:11;;;;;;;8.13;7.32;;;6.80;1.00;;;;;;5059391;28;20738;-76
2023/11/21 06:52:39;;;;;;;7.88;7.13;;;6.90;1.00;;;;;;5067466;28;20349;-74
2023/11/21 06:55:08;;;;;;;7.55;6.85;;;6.90;1.00;;;;;;5063428;28;20254;-73
2023/11/21 06:57:35;;;;;;;7.82;6.88;;;6.90;1.00;;;;;;5067805;28;20720;-72
2023/11/21 07:00:04;;;;;;;8.43;7.50;;;6.90;1.00;;;;;;5055348;28;20236;-73
2023/11/21 07:02:32;;;;;;;8.20;7.40;;;6.90;1.00;;;;;;5060727;28;20483;-73
2023/11/21 07:04:59;;;;;;;8.25;7.20;;;6.90;1.00;;;;;;5054225;28;20454;-72
2023/11/21 07:07:26;;;;;;;9.23;7.95;;;6.90;1.00;;;;;;5053601;28;20726;-72
2023/11/21 07:09:53;;;;;;;11.13;7.53;;;6.90;1.00;;;;;;5064364;28;20298;-72
2023/11/21 07:12:23;;;;;;;9.82;6.70;;;6.90;1.00;;;;;;5044194;28;20458;-76
2023/11/21 07:14:50;;;;;;;8.10;7.10;;;6.90;1.00;;;;;;5053113;28;20248;-73
2023/11/21 07:17:18;;;;;;;7.40;6.38;;;6.90;1.00;;;;;;5063559;28;20239;-73
2023/11/21 07:19:46;;;;;;;9.40;7.10;;;6.90;1.00;;;;;;5065959;28;20900;-71
2023/11/21 07:22:13;;;;;;;10.00;7.50;;;6.90;1.00;;;;;;5064899;28;20475;-72
2023/11/21 07:24:40;;;;;;;7.37;6.70;;;6.90;1.00;;;;;;5065215;28;20530;-73
2023/11/21 07:27:09;;;;;;;8.23;7.43;;;6.90;1.00;;;;;;5059228;28;21015;-73
2023/11/21 07:29:36;;;;;;;7.75;6.97;;;6.90;1.00;;;;;;5083334;28;20231;-81
2023/11/21 07:32:03;;;;;;;7.70;6.87;;;6.90;1.00;;;;;;5070890;28;20724;-81
2023/11/21 07:34:31;;;;;;;7.60;6.78;;;6.80;1.00;;;;;;5077225;28;20518;-78
2023/11/21 07:36:58;;;;;;;7.95;5.72;;;6.80;1.00;;;;;;5070449;28;20315;-79
2023/11/21 07:39:25;;;;;;;6.60;5.90;;;6.70;1.00;;;;;;5074229;28;20269;-80
2023/11/21 07:41:52;;;;;;;7.32;5.90;;;6.70;1.00;;;;;;5070527;28;20557;-79
2023/11/21 07:44:19;;;;;;;6.53;5.93;;;6.70;1.00;;;;;;5071281;28;22089;-81
2023/11/21 07:46:47;;;;;;;8.23;6.63;;;6.80;1.00;;;;;;5065518;28;20804;-80
2023/11/21 07:49:15;;;;;;;7.93;5.80;;;6.70;1.00;;;;;;5066978;28;20270;-74
2023/11/21 07:51:44;;;;;;;10.38;5.95;;;6.70;1.00;;;;;;5055194;28;20255;-76
2023/11/21 07:54:11;;;;;;;7.07;5.57;;;6.70;1.00;;;;;;5070018;28;20247;-76
2023/11/21 07:56:38;;;;;;;10.70;6.82;;;6.60;1.00;;;;;;5073644;28;20236;-81
2023/11/21 07:59:05;;;;;;;8.68;6.47;;;6.70;1.00;;;;;;5060562;28;20244;-81
2023/11/21 08:01:32;;;;;;;12.23;7.00;;;6.70;1.00;;;;;;5072511;28;20235;-81
2023/11/21 08:04:03;;;;;;;13.13;7.05;;;6.70;1.00;;;;;;5067374;28;20238;-79
2023/11/21 08:06:30;;;;;;;10.45;6.88;;;6.70;1.00;;;;;;5067034;28;20243;-77
2023/11/21 08:08:59;;;;;;;11.73;7.30;;;6.70;1.00;;;;;;5069300;28;20233;-78
2023/11/21 08:11:29;;;;;;;10.32;7.13;;;6.80;1.00;;;;;;5074546;28;20242;-77
2023/11/21 08:13:56;;;;;;;10.43;7.03;;;6.80;1.00;;;;;;5066937;28;20312;-76
2023/11/21 08:16:23;;;;;;;10.98;6.88;;;6.80;1.00;;;;;;5066681;28;20368;-77
2023/11/21 08:18:51;;;;;;;14.75;8.48;;;6.90;1.00;;;;;;5070403;28;22574;-77
2023/11/21 08:21:18;;;;;;;14.77;9.52;;;6.70;1.00;;;;;;5071359;28;20234;-76
2023/11/21 08:23:45;;;;;;;15.60;10.60;;;6.80;1.00;;;;;;5065946;28;20655;-76
2023/11/21 08:26:18;;;;;;;14.23;8.37;;;6.80;1.00;;;;;;5067457;28;20289;-75
2023/11/21 08:28:45;;;;;;;15.40;9.50;;;6.80;1.00;;;;;;5071698;28;20479;-77
2023/11/21 08:31:12;;;;;;;13.43;8.90;;;6.80;1.00;;;;;;5068240;28;20561;-78
2023/11/21 08:33:39;;;;;;;15.27;9.25;;;6.90;1.00;;;;;;5071528;28;20574;-77
2023/11/21 08:36:09;;;;;;;14.48;9.48;;;6.80;1.00;;;;;;5064332;28;20246;-78
2023/11/21 08:38:37;;;;;;;17.60;9.60;;;6.80;1.00;;;;;;5069148;28;20242;-80
2023/11/21 08:41:08;;;;;;;16.10;8.93;;;6.80;1.00;;;;;;5071227;28;20243;-79
2023/11/21 08:43:39;;;;;;;18.65;10.10;;;6.80;1.00;;;;;;5058603;28;20466;-77
2023/11/21 08:46:06;;;;;;;14.90;9.48;;;6.80;1.00;;;;;;5052621;28;20360;-77
2023/11/21 08:48:33;;;;;;;18.67;10.60;;;6.90;1.00;;;;;;5066214;28;21114;-79
2023/11/21 08:51:00;;;;;;;16.07;9.30;;;7.00;1.00;;;;;;5065843;28;20488;-80
2023/11/21 08:53:27;;;;;;;15.15;9.05;;;7.00;1.00;;;;;;5065029;28;20532;-80
2023/11/21 08:55:54;;;;;;;15.60;10.38;;;6.90;1.00;;;;;;5064995;28;20398;-77
2023/11/21 08:58:21;;;;;;;11.90;8.93;;;6.90;1.00;;;;;;5061256;28;20235;-77
2023/11/21 09:00:50;;;;;;;15.63;9.57;;;6.80;1.00;;;;;;5054894;28;20532;-80
2023/11/21 09:03:17;;;;;;;19.85;8.85;;;6.80;1.00;;;;;;5050330;28;20274;-79
2023/11/21 09:05:44;;;;;;;16.45;9.60;;;6.80;1.00;;;;;;5068449;28;21053;-79
2023/11/21 09:08:11;;;;;;;16.60;10.50;;;6.80;1.00;;;;;;5071015;28;20241;-78
2023/11/21 09:10:39;;;;;;;14.98;10.13;;;6.90;1.00;;;;;;5069985;28;20515;-80
2023/11/21 09:13:08;;;;;;;17.73;9.95;;;6.80;1.00;;;;;;5070180;28;20357;-78
2023/11/21 09:15:35;;;;;;;13.65;8.40;;;6.80;1.00;;;;;;5074743;28;20326;-78
2023/11/21 09:18:04;;;;;;;13.15;8.02;;;6.80;1.00;;;;;;5070466;28;20249;-80
2023/11/21 09:20:31;;;;;;;13.30;7.60;;;6.80;1.00;;;;;;5068462;28;20244;-78
2023/11/21 09:22:58;;;;;;;10.40;8.03;;;6.90;1.00;;;;;;5062773;28;20476;-80
2023/11/21 09:25:25;;;;;;;11.85;7.65;;;6.70;1.00;;;;;;5058136;28;20511;-79
2023/11/21 09:27:52;;;;;;;10.32;6.82;;;6.70;1.00;;;;;;5059991;28;21034;-81
2023/11/21 09:30:19;;;;;;;10.70;7.47;;;6.70;1.00;;;;;;5070311;28;20280;-78
2023/11/21 09:32:47;;;;;;;12.07;7.00;;;6.80;1.00;;;;;;5072572;28;20232;-78
2023/11/21 09:35:17;;;;;;;10.63;6.30;;;6.70;1.00;;;;;;5069674;28;20239;-77
2023/11/21 09:37:45;;;;;;;9.90;5.20;;;6.80;1.00;;;;;;5071704;28;20501;-76
2023/11/21 09:40:16;;;;;;;9.48;5.57;;;6.80;1.00;;;;;;5069434;28;20458;-77
2023/11/21 09:42:52;;;;;;;7.05;4.35;;;6.90;1.00;;;;;;5062868;28;20244;-77
2023/11/21 09:45:25;;;;;;;3.95;3.55;;;6.90;1.00;;;;;;5056860;28;20311;-73
2023/11/21 09:47:54;;;;;;;9.53;3.90;;;7.00;1.00;;;;;;5069419;28;20365;-74
2023/11/21 09:50:23;;;;;;;5.88;5.05;;;7.20;1.00;;;;;;5048189;28;20460;-76
2023/11/21 09:53:00;;;;;;;4.87;3.80;;;7.20;1.00;;;;;;5050300;28;20240;-75
2023/11/21 09:55:29;;;;;;;6.50;3.40;;;7.20;1.00;;;;;;5053092;28;20494;-77
2023/11/21 09:57:57;;;;;;;5.90;3.70;;;7.10;1.00;;;;;;5047106;28;20514;-74
2023/11/21 10:00:24;;;;;;;5.87;3.63;;;7.20;1.00;;;;;;5059249;28;20474;-75
2023/11/21 10:02:53;;;;;;;6.17;3.47;;;7.20;1.00;;;;;;5068585;28;20519;-75
2023/11/21 10:05:22;;;;;;;7.00;3.70;;;7.30;1.00;;;;;;5068050;28;20457;-76
2023/11/21 10:07:51;;;;;;;3.50;3.20;;;7.30;1.00;;;;;;5048355;28;20569;-75
2023/11/21 10:10:21;;;;;;;4.87;3.50;;;7.30;1.00;;;;;;5067124;28;20851;-75
2023/11/21 10:12:53;;;;;;;4.32;3.40;;;7.30;1.00;;;;;;5069279;28;20467;-75
2023/11/21 10:15:24;;;;;;;3.80;3.42;;;7.20;1.00;;;;;;5064101;28;20777;-74
2023/11/21 10:17:54;;;;;;;4.80;4.30;;;7.20;1.00;;;;;;5055155;28;20263;-75
2023/11/21 10:20:21;;;;;;;4.60;3.23;;;7.00;1.00;;;;;;5059642;28;20465;-76
2023/11/21 10:22:50;;;;;;;8.07;3.28;;;7.00;1.00;;;;;;5067855;28;20432;-75
2023/11/21 10:25:20;;;;;;;5.88;3.25;;;6.90;1.00;;;;;;5057680;28;20256;-75
2023/11/21 10:27:50;;;;;;;4.75;4.15;;;6.90;1.00;;;;;;5062257;28;20243;-74
2023/11/21 10:30:17;;;;;;;6.63;2.75;;;6.90;1.00;;;;;;5061045;28;20237;-74
2023/11/21 10:32:45;;;;;;;5.57;3.63;;;7.00;1.00;;;;;;5059818;28;20293;-75
2023/11/21 10:35:12;;;;;;;6.05;4.05;;;6.90;1.00;;;;;;5059264;28;20235;-74
2023/11/21 10:37:40;;;;;;;3.83;3.20;;;6.90;1.00;;;;;;5061856;28;20275;-74
2023/11/21 10:40:11;;;;;;;4.40;4.00;;;7.00;1.00;;;;;;5048278;28;20239;-74
2023/11/21 10:42:39;;;;;;;4.43;4.03;;;7.20;1.00;;;;;;5056774;28;20302;-75
2023/11/21 10:45:11;;;;;;;5.55;3.80;;;7.30;1.00;;;;;;5066563;28;20231;-74
2023/11/21 10:47:40;;;;;;;10.63;8.30;;;7.40;1.00;;;;;;5052486;28;21141;-73
2023/11/21 10:50:10;;;;;;;5.73;4.67;;;7.40;1.00;;;;;;5061897;28;20344;-73
2023/11/21 10:52:39;;;;;;;5.32;3.97;;;7.40;1.00;;;;;;5051886;28;20460;-74
2023/11/21 10:55:17;;;;;;;4.38;3.50;;;7.30;1.00;;;;;;5064632;28;20333;-74
2023/11/21 10:57:49;;;;;;;4.10;3.30;;;7.20;1.00;;;;;;5065509;28;20242;-74
2023/11/21 11:00:20;;;;;;;4.53;4.10;;;7.20;1.00;;;;;;5062392;28;20562;-75
2023/11/21 11:02:49;;;;;;;5.10;3.90;;;7.20;1.00;;;;;;5067499;28;20293;-73
2023/11/21 11:05:20;;;;;;;7.38;5.53;;;7.20;1.00;;;;;;5051273;28;20242;-73
2023/11/21 11:07:52;;;;;;;7.13;4.40;;;7.10;1.00;;;;;;5059412;28;20303;-73
2023/11/21 11:10:22;;;;;;;8.38;4.80;;;7.10;1.00;;;;;;5065046;28;20459;-73
2023/11/21 11:12:52;;;;;;;8.77;6.25;;;7.00;1.00;;;;;;5058642;28;20243;-73
2023/11/21 11:15:20;;;;;;;5.50;4.65;;;6.90;1.00;;;;;;5055903;28;20226;-73
2023/11/21 11:17:49;;;;;;;6.57;4.45;;;6.80;1.00;;;;;;5060287;28;20372;-74
2023/11/21 11:20:17;;;;;;;6.63;6.03;;;6.80;1.00;;;;;;5065383;28;20744;-73
2023/11/21 11:22:55;;;;;;;6.07;4.40;;;6.70;1.00;;;;;;5067843;28;20305;-73
2023/11/21 11:25:40;;;;;;;5.28;4.78;;;6.80;1.00;;;;;;5052486;28;20317;-75
2023/11/21 11:28:13;;;;;;;5.43;4.82;;;6.80;1.00;;;;;;5062263;28;20240;-73
2023/11/21 11:31:00;;;;;;;6.80;5.72;;;6.70;1.00;;;;;;5050674;28;20242;-74
2023/11/21 11:33:36;;;;;;;6.82;5.50;;;6.60;1.00;;;;;;5059814;28;20227;-75
2023/11/21 11:36:07;;;;;;;10.10;9.10;;;6.60;1.00;;;;;;5065612;28;20243;-74
2023/11/21 11:38:35;;;;;;;6.75;6.15;;;6.50;1.00;;;;;;5059792;28;20239;-76
2023/11/21 11:41:05;;;;;;;7.82;6.43;;;6.50;1.00;;;;;;5049001;28;20283;-75
2023/11/21 11:43:42;;;;;;;5.50;5.00;;;6.40;1.00;;;;;;5056962;28;20592;-75
2023/11/21 11:46:09;;;;;;;5.05;4.65;;;6.40;1.00;;;;;;5048000;28;20344;-75
2023/11/21 11:48:40;;;;;;;4.68;4.25;;;6.20;1.00;;;;;;5059561;28;20243;-73
2023/11/21 11:51:11;;;;;;;5.53;4.93;;;6.10;1.00;;;;;;5066717;28;20236;-76
2023/11/21 11:53:41;;;;;;;6.68;4.95;;;6.10;1.00;;;;;;5060031;28;20721;-74
2023/11/21 11:56:33;;;;;;;5.47;4.80;;;6.20;1.00;;;;;;5047150;28;20694;-76
2023/11/21 11:59:03;;;;;;;6.57;5.35;;;6.20;1.00;;;;;;5062874;28;20728;-78
2023/11/21 12:01:32;;;;;;;4.63;4.22;;;6.30;1.00;;;;;;5053537;28;20322;-76
2023/11/21 12:04:30;;;;;;;4.93;4.53;;;6.40;1.00;;;;;;5043030;28;20243;-76
2023/11/21 12:07:00;;;;;;;4.93;4.43;;;6.40;1.00;;;;;;5048010;28;20582;-74
2023/11/21 12:09:27;;;;;;;5.68;4.20;;;6.40;1.00;;;;;;5047259;28;20249;-72
2023/11/21 12:11:57;;;;;;;7.68;4.50;;;6.40;1.00;;;;;;5053840;28;20329;-71
2023/11/21 12:14:25;;;;;;;5.00;4.22;;;6.20;1.00;;;;;;5058586;28;20238;-72
2023/11/21 12:16:53;;;;;;;5.22;4.30;;;6.30;1.00;;;;;;5059423;28;20362;-73
2023/11/21 12:19:21;;;;;;;5.03;4.53;;;6.30;1.00;;;;;;5070991;28;20233;-72
2023/11/21 12:21:48;;;;;;;8.73;7.70;;;6.20;1.00;;;;;;5072703;28;20576;-68
2023/11/21 12:24:16;;;;;;;18.63;13.23;;;6.30;1.00;;;;;;5050741;28;20286;-70
2023/11/21 12:26:43;;;;;;;10.77;8.20;;;6.30;1.00;;;;;;5070706;28;20957;-68
2023/11/21 12:29:12;;;;;;;11.20;7.25;;;6.40;1.00;;;;;;5058599;28;20262;-72
2023/11/21 12:31:39;;;;;;;5.93;5.30;;;6.40;1.00;;;;;;5063466;28;20237;-69
2023/11/21 12:34:08;;;;;;;6.15;5.47;;;6.40;1.00;;;;;;5052109;28;20258;-71
2023/11/21 12:36:36;;;;;;;3.95;3.58;;;6.20;1.00;;;;;;5068438;28;20330;-76
2023/11/21 12:39:03;;;;;;;4.28;3.50;;;6.20;1.00;;;;;;5063638;28;20234;-70
2023/11/21 12:41:31;;;;;;;3.38;3.13;;;6.20;1.00;;;;;;5068669;28;20903;-70
2023/11/21 12:43:58;;;;;;;3.80;3.50;;;6.00;1.00;;;;;;5062111;28;20244;-69
2023/11/21 12:46:30;;;;;;;3.50;3.20;;;6.00;1.00;;;;;;5054653;28;20237;-72
2023/11/21 12:48:58;;;;;;;3.90;3.60;;;6.00;1.00;;;;;;5052793;28;20262;-70
2023/11/21 12:51:25;;;;;;;4.45;3.40;;;6.20;1.00;;;;;;5068028;28;20239;-74
2023/11/21 12:53:53;;;;;;;3.90;3.60;;;6.20;1.00;;;;;;5061124;28;20689;-71
2023/11/21 12:56:23;;;;;;;4.18;3.78;;;6.30;1.00;;;;;;5068100;28;20238;-70
2023/11/21 12:58:51;;;;;;;8.15;4.55;;;6.20;1.00;;;;;;5056108;28;20731;-71
2023/11/21 13:01:21;;;;;;;5.03;4.53;;;6.20;1.00;;;;;;5049060;28;20233;-71
2023/11/21 13:03:51;;;;;;;5.70;4.55;;;6.20;1.00;;;;;;5052356;28;20248;-70